Main page
METAR-TAF:

METAR-TAF

Airports :

Durham Tees Valley Airport

Durham, England

latitude: 54-31N, longitude: 001-25W, elevation: 37 m

Current weather observation

The report was made 31 minutes ago, at 07:20 UTC
Wind 13 kt from the South
Temperature 13°C
Humidity 82%
Pressure 997 hPa
Visibility 10 km or more
Few clouds at a height of 1500 ft

METAR: EGNV 180720Z 18013KT 9999 FEW015 13/10 Q0997

Time: 08:51 (07:51 UTC)

Forecast

The report was made 2 hours and 24 minutes ago, at 05:27 UTC
Forecast valid from 18 at 06 UTC to 18 at 15 UTC
Wind 9 kt from the South
Visibility 10 km or more
Scattered clouds at a height of 2000 ft
Becoming
from 18 at 06 UTC to 18 at 09 UTC
Wind 15 kt from the Southwest with gusts up to 28 kt
Probability 30% :
Temporary
from 18 at 10 UTC to 18 at 12 UTC
Visibility: 7000 m
rain showers

TAF: EGNV 180527Z 1806/1815 19009KT 9999 SCT020 BECMG 1806/1809 22015G28KT PROB30 TEMPO 1810/1812 7000 SHRA

Weather observations and forecasts of more than 4000 airports (METAR and TAF reports).

The available stations are represented by yellow and red dots on the map.

Hover mouse over dot to see the name of the station.

Then click to see weather observations and forecasts.

To change the map : click on the green buttons with a black cross to zoom in, on the green button with a dash to zoom out, or on the green arrows for adjacent maps.


METAR-TAF: